Lebanon, OR

1:46 AM PST on January 31, 2015 (GMT -0800)
McMinnville Municipal | Change Station
CLOSE
Current Station
Airport
Location: McMinnville,
Elevation: 157 ft
Nearby Weather Stations

Elev 157 ft 45.19 °N, 123.14 °W | Updated 35 minutes ago

Mostly Cloudy
Mostly Cloudy
35 °F
Feels Like 35 °F
N
0
Wind Variable Wind from North

Today
High -- | Low -- °F
--% Chance of Precip.
Yesterday
High -- | Low -- °F
Precip. -- in
7:31 AM 5:19 PM
Waxing Gibbous, 88% visible
Pressure 30.22 in
Visibility 0.5 miles
Clouds
Dew Point 34 °F
Humidity 96%
Rainfall 0.00 in
Snow Depth Not available.
UV Not available.
Pollen 3.60 out of 12
Air Quality Not available.
Flu Activity Not available.
SPECI KMMV 310911Z AUTO 00000KT 1/2SM FG VV002 02/01 A3022 RMK AO2 T00170011

More Conditions Fewer Conditions

Pressure 30.22 in
Visibility 0.5 miles
Clouds
Dew Point 34 °F
Humidity 96%
Rainfall 0.00 in
Snow Depth Not available.
UV Not available.
Pollen 3.60 out of 12
Air Quality Not available.
Flu Activity Not available.
SPECI KMMV 310911Z AUTO 00000KT 1/2SM FG VV002 02/01 A3022 RMK AO2 T00170011

More Conditions Fewer Conditions

Nowcast | as of 1:22 am PST on January 31, 2015

Widespread fog...with areas of dense fog...will continue in the south Willamette Valley through the night. Shortly after 1 am the visibility at the Eugene and Corvallis airports was one-quarter mile. Take extra precautions when driving in the south Willamette Valley tonight.

×

10-Day Weather Forecast

Almanac

Astronomy

Jan. 31, 2015 Rise Set
Actual Time
Civil Twilight
Nautical Twilight
Astronomical Twilight
Moon
Length of Visible Light
Length of Day
Tomorrow will be .
, % of the Moon is Illuminated

Today's Extremes

State Highs State Lows

Community

WunderPhotos

Upload Photos

1,792,021 photos uploaded!

WunderBlogs® & News

Nearby

Air Quality

  Air Quality AQ Index Pollutant
Not available.

Snow Depth

Station Depth Elevation

Earthquake Activity

City Distance Mag. Time & Date
Minimum magnitude displayed is 2.5.

Coastal Water Temperatures

Place Temperature

Nearby Weather Stations